Epsom, NH

3:51 PM EST on March 02, 2015 (GMT -0500)
Laconia Municipal | Change Station
CLOSE
Current Station
Airport
Location: Laconia,
Elevation: 545 ft
Nearby Weather Stations

Elev 545 ft 43.57 °N, 71.42 °W | Updated 16 minutes ago

Overcast
Overcast
30 °F
Feels Like 20 °F
N
14
Wind Variable Wind from West
Gusts 24 mph

Today
High -- | Low -- °F
--% Chance of Precip.
Yesterday
High -- | Low -- °F
Precip. -- in
6:20 AM 5:35 PM
Waxing Gibbous, 93% visible
Pressure 29.92 in
Visibility 10.0 miles
Clouds Few 5000 ft
Overcast 7000 ft
Windchill 20 °F
Dew Point 10 °F
Humidity 44%
Rainfall 0.00 in
Snow Depth Not available.
UV 0 out of 12
Pollen .30 out of 12
Air Quality Not available.
Flu Activity Not available.
METAR KLCI 022035Z AUTO 27012G21KT 10SM FEW050 OVC070 M01/M12 A2992 RMK AO1

More Conditions Fewer Conditions

Pressure 29.92 in
Visibility 10.0 miles
Clouds Few 5000 ft
Overcast 7000 ft
Windchill 20 °F
Dew Point 10 °F
Humidity 44%
Rainfall 0.00 in
Snow Depth Not available.
UV 0 out of 12
Pollen .30 out of 12
Air Quality Not available.
Flu Activity Not available.
METAR KLCI 022035Z AUTO 27012G21KT 10SM FEW050 OVC070 M01/M12 A2992 RMK AO1

More Conditions Fewer Conditions

10-Day Weather Forecast

Almanac

Astronomy

Mar. 02, 2015 Rise Set
Actual Time
Civil Twilight
Nautical Twilight
Astronomical Twilight
Moon
Length of Visible Light
Length of Day
Tomorrow will be .
, % of the Moon is Illuminated

Today's Extremes

State Highs State Lows

Community

WunderPhotos

Upload Photos

1,801,941 photos uploaded!

WunderBlogs® & News

Nearby

Air Quality

  Air Quality AQ Index Pollutant
Not available.

Snow Depth

Station Depth Elevation

Earthquake Activity

City Distance Mag. Time & Date
Minimum magnitude displayed is 2.5.

Coastal Water Temperatures

Place Temperature

Nearby Weather Stations